ADDS METAR Data INFO
IDs: Format: Raw Decoded Include TAF

Data at: 2359 UTC 16 Oct 2017

KBMT 162335Z AUTO 36007KT 10SM CLR 21/08 A3018 RMK AO2 T02110082
KBMT 162315Z AUTO 35008KT 10SM CLR 22/08 A3018 RMK AO2 T02240081
KBMT 162255Z AUTO 36008KT 10SM CLR 23/08 A3017 RMK AO2 T02330076
KBMT 162235Z AUTO 36011KT 10SM CLR 24/07 A3016 RMK AO2 T02380074
KBMT 162215Z AUTO 36011G17KT 10SM CLR 24/07 A3015 RMK AO2 T02420074
KBMT 162155Z AUTO 01011G17KT 10SM CLR 25/07 A3015 RMK AO2 T02460071
KBMT 162135Z AUTO 36013G16KT 10SM CLR 25/07 A3015 RMK AO2 T02500070
KBMT 162115Z AUTO 35010G19KT 10SM CLR 25/06 A3015 RMK AO2 T02480064
KBMT 162055Z AUTO 36012G20KT 10SM CLR 25/06 A3015 RMK AO2 T02490059
KBMT 162035Z AUTO 36015G22KT 10SM CLR 25/06 A3015 RMK AO2 T02470061
KBMT 162015Z AUTO 01013G18KT 10SM CLR 25/07 A3015 RMK AO2 T02500065
KBMT 161955Z AUTO 36015G20KT 10SM CLR 25/06 A3016 RMK AO2 T02480057
KBMT 161935Z AUTO 36015G20KT 10SM CLR 25/07 A3017 RMK AO2 T02480066
KBMT 161915Z AUTO 36014G19KT 10SM CLR 25/06 A3017 RMK AO2 T02460055
KBMT 161855Z AUTO 35016KT 10SM CLR 24/05 A3018 RMK AO2 T02410054
KBMT 161835Z AUTO 01013G19KT 10SM CLR 24/06 A3020 RMK AO2 T02400063
KBMT 161815Z AUTO 01013G21KT 10SM CLR 24/06 A3021 RMK AO2 T02360060
KBMT 161755Z AUTO 02012G19KT 10SM CLR 23/07 A3022 RMK AO2 T02330074 10233 20171
KBMT 161735Z AUTO 01012G20KT 10SM CLR 23/07 A3024 RMK AO2 T02280069
KBMT 161715Z AUTO 01011G17KT 340V040 10SM CLR 23/08 A3024 RMK AO2 T02260076
KBMT 161655Z AUTO 03012G19KT 10SM CLR 22/07 A3025 RMK AO2 T02240072
KBMT 161635Z AUTO 01012G16KT 10SM CLR 22/07 A3026 RMK AO2 T02190073
KBMT 161615Z AUTO 03012G18KT 10SM CLR 21/08 A3026 RMK AO2 T02120080
KBMT 161555Z AUTO 01014G20KT 10SM CLR 20/08 A3026 RMK AO2 T02040076
KBMT 161535Z AUTO 02015G23KT 10SM CLR 20/08 A3026 RMK AO2 T01980079
KBMT 161515Z AUTO 03017G24KT 10SM CLR 19/08 A3026 RMK AO2 T01920078
KBMT 161455Z AUTO 03015G21KT 10SM CLR 19/08 A3027 RMK AO2 T01880078
KBMT 161435Z AUTO 02015G23KT 10SM CLR 18/08 A3027 RMK AO2 T01840081
KBMT 161415Z AUTO 04017G24KT 10SM CLR 18/09 A3026 RMK AO2 T01820086
KBMT 161355Z AUTO 02015G23KT 10SM CLR 18/09 A3026 RMK AO2 T01800088
KBMT 161335Z AUTO 03013G22KT 10SM CLR 18/09 A3025 RMK AO2 T01760088
KBMT 161315Z AUTO 02012G21KT 10SM CLR 17/09 A3024 RMK AO2 T01730092
KBMT 161255Z AUTO 02008G18KT 10SM CLR 17/09 A3024 RMK AO2 T01710093
KBMT 161235Z AUTO 02012G15KT 10SM CLR 17/09 A3023 RMK AO2 T01710090
KBMT 161215Z AUTO 02012G17KT 10SM SCT080 17/09 A3021 RMK AO2 T01740090
KBMT 161155Z AUTO 02012G18KT 10SM BKN080 18/09 A3021 RMK AO2 T01790087 10221 20179
KBMT 161135Z AUTO 02012G16KT 10SM OVC090 18/09 A3020 RMK AO2 T01820087
KBMT 161115Z AUTO 02013G19KT 10SM SCT070 OVC080 19/09 A3019 RMK AO2 T01850089
KBMT 161055Z AUTO 01011G18KT 10SM SCT080 OVC085 19/10 A3018 RMK AO2 T01860095
KBMT 161035Z AUTO 01012G16KT 10SM OVC080 19/10 A3017 RMK AO2 T01870099
KBMT 161015Z AUTO 01011KT 10SM BKN080 19/11 A3017 RMK AO2 T01880105
KBMT 160955Z AUTO 01012G18KT 10SM CLR 19/11 A3016 RMK AO2 T01900106
KBMT 160935Z AUTO 01010G15KT 10SM CLR 19/11 A3017 RMK AO2 T01920110
KBMT 160915Z AUTO 02010G16KT 10SM SCT070 20/11 A3017 RMK AO2 T01960110
KBMT 160855Z AUTO 02007KT 10SM BKN070 20/11 A3018 RMK AO2 T02000111
KBMT 160835Z AUTO 03011G17KT 10SM CLR 20/11 A3017 RMK AO2 T01990111
KBMT 160815Z AUTO 02011KT 10SM CLR 20/11 A3017 RMK AO2 T02020110
KBMT 160755Z AUTO 02010G18KT 10SM SCT085 21/11 A3017 RMK AO2 T02050111
KBMT 160735Z AUTO 02009G20KT 10SM SCT085 21/11 A3016 RMK AO2 T02100113
KBMT 160715Z AUTO 02012G21KT 10SM CLR 22/12 A3016 RMK AO2 T02150117
KBMT 160655Z AUTO 02013G19KT 10SM SCT090 22/13 A3016 RMK AO2 T02150125
KBMT 160635Z AUTO 02015G22KT 10SM SCT075 BKN090 22/13 A3016 RMK AO2 T02180129
KBMT 160615Z AUTO 02012G18KT 10SM OVC075 22/13 A3016 RMK AO2 T02200133
KBMT 160555Z AUTO 01010G21KT 10SM OVC075 22/13 A3016 RMK AO2 T02220133 10271 20222 403260203
KBMT 160535Z AUTO 01012G19KT 10SM OVC075 22/13 A3017 RMK AO2 T02220131
KBMT 160515Z AUTO 01011G19KT 10SM OVC075 22/13 A3017 RMK AO2 T02240130
KBMT 160455Z AUTO 01013G22KT 10SM OVC075 23/13 A3017 RMK AO2 T02250130
KBMT 160435Z AUTO 01011G18KT 10SM SCT038 OVC075 23/14 A3017 RMK AO2 T02250136
KBMT 160415Z AUTO 01011G18KT 10SM SCT038 BKN075 OVC085 23/15 A3017 RMK AO2 T02260145
KBMT 160355Z AUTO 01014G20KT 10SM BKN075 OVC085 23/17 A3017 RMK AO2 T02250165
KBMT 160335Z AUTO 36013G19KT 10SM BKN080 OVC085 23/17 A3017 RMK AO2 T02250172
KBMT 160315Z AUTO 36013G18KT 10SM BKN080 23/17 A3016 RMK AO2 T02270172
KBMT 160255Z AUTO 36011G18KT 10SM CLR 23/18 A3015 RMK AO2 T02270175
KBMT 160235Z AUTO 35012G16KT 10SM CLR 23/18 A3015 RMK AO2 T02270176
KBMT 160215Z AUTO 35010G16KT 10SM CLR 23/18 A3014 RMK AO2 T02300177
KBMT 160155Z AUTO 35011G16KT 10SM CLR 23/18 A3013 RMK AO2 T02310180
KBMT 160135Z AUTO 35012G15KT 10SM CLR 24/18 A3013 RMK AO2 T02350180
KBMT 160115Z AUTO 36012G16KT 10SM CLR 24/18 A3012 RMK AO2 T02370182
KBMT 160055Z AUTO 35012G19KT 10SM CLR 24/19 A3011 RMK AO2 LTG DSNT NE T02400188
KBMT 160035Z AUTO 35018G22KT 10SM SCT055 25/19 A3010 RMK AO2 T02460194
KBMT 160015Z AUTO 34017G23KT 10SM SCT055 BKN065 26/20 A3009 RMK AO2 T02570203
KBMT 152355Z AUTO 33015G22KT 10SM BKN055 OVC065 27/22 A3007 RMK AO2 T02720215 10326 20272
KBMT 152335Z AUTO 32013KT 10SM BKN049 28/22 A3006 RMK AO2 LTG DSNT E T02810221
KBMT 152315Z AUTO 33007KT 10SM CLR 30/20 A3005 RMK AO2 T03010203
KBMT 152255Z AUTO 34007KT 10SM CLR 31/21 A3004 RMK AO2 T03090208
KBMT 152235Z AUTO 34007KT 10SM SCT042 31/21 A3004 RMK AO2 LTG DSNT S T03090208
KBMT 152215Z AUTO 36005KT 10SM CLR 32/21 A3002 RMK AO2 T03170211
KBMT 152155Z AUTO 34008KT 10SM SCT041 SCT048 SCT060 31/22 A3002 RMK AO2 LTG DSNT S T03090215
KBMT 152135Z AUTO 34008KT 10SM BKN041 BKN048 BKN065 32/22 A3002 RMK AO2 LTG DSNT S T03160215
KBMT 152115Z AUTO 33008KT 10SM SCT041 33/21 A3002 RMK AO2 T03250208
KBMT 152055Z AUTO 33006KT 10SM SCT041 SCT085 32/21 A3002 RMK AO2 T03210209
KBMT 152035Z AUTO 35007KT 10SM BKN043 BKN055 32/21 A3003 RMK AO2 LTG DSNT S T03180206
KBMT 152015Z AUTO 33006KT 10SM SCT034 SCT042 SCT055 32/21 A3003 RMK AO2 T03180213
KBMT 151955Z AUTO 35007KT 10SM SCT034 BKN042 BKN048 31/22 A3003 RMK AO2 T03110217
KBMT 151935Z AUTO 35006KT 10SM SCT032 SCT041 SCT048 32/22 A3003 RMK AO2 LTG DSNT S T03180219
KBMT 151915Z AUTO 34003KT 10SM BKN032 BKN041 BKN050 31/22 A3004 RMK AO2 T03140223
KBMT 151855Z AUTO 03006KT 10SM SCT029 SCT036 32/23 A3005 RMK AO2 LTG DSNT S T03180226
KBMT 151835Z AUTO 04003KT 10SM SCT030 32/23 A3006 RMK AO2 T03150228
KBMT 151815Z AUTO 35006KT 10SM SCT028 BKN033 31/22 A3007 RMK AO2 LTG DSNT S AND SW T03050221
KBMT 151755Z AUTO 36005KT 10SM SCT028 31/23 A3008 RMK AO2 LTG DSNT S T03080230 10308 20203
KBMT 151735Z AUTO 00000KT 10SM SCT021 30/23 A3010 RMK AO2 T03000226
KBMT 151715Z AUTO 36007KT 320V020 10SM SCT014 30/23 A3011 RMK AO2 T03010234
KBMT 151655Z AUTO 04004KT 10SM SCT012 30/24 A3010 RMK AO2 T02950239
KBMT 151635Z AUTO 01005KT 10SM BKN010 28/24 A3011 RMK AO2 T02810239
KBMT 151615Z AUTO 34007KT 10SM BKN008 29/24 A3012 RMK AO2 T02850242
KBMT 151555Z AUTO 05004KT 10SM OVC006 27/24 A3012 RMK AO2 T02710239
KBMT 151535Z AUTO 02004KT 10SM OVC004 26/24 A3013 RMK AO2 T02630238
KBMT 151515Z AUTO 02005KT 5SM BR OVC002 25/24 A3012 RMK AO2 T02470236
KBMT 151455Z AUTO 36007KT 1SM BR OVC002 24/23 A3012 RMK AO2 T02400230
KBMT 151435Z AUTO 34007KT 1/4SM FG OVC002 24/23 A3012 RMK AO2 T02420232
KBMT 151415Z AUTO 36005KT 1/4SM FG OVC002 24/23 A3011 RMK AO2 T02400230
KBMT 151355Z AUTO 35005KT 1/4SM FG OVC002 24/23 A3009 RMK AO2 T02370227
KBMT 151335Z AUTO 34003KT 1/4SM FG OVC002 23/22 A3008 RMK AO2 T02320222
KBMT 151315Z AUTO 01003KT 1/4SM FG OVC002 23/22 A3007 RMK AO2 T02250215
KBMT 151255Z AUTO 00000KT M1/4SM FG 22/21 A3006 RMK AO2 T02200210
KBMT 151235Z AUTO 36003KT 1/4SM FG OVC003 21/20 A3006 RMK AO2 T02130203
KBMT 151215Z AUTO 00000KT 3SM BR BKN003 21/20 A3005 RMK AO2 T02050195